This is the latest recevied weather packets stored in our database for station/object KK7ISX. If no packets are shown the sender has not sent any weather packets the latest 10 day(s).
| Time | Temp. | Humidity | Pressure | Rain* | Wind** | Luminosity | Snow |
|---|---|---|---|---|---|---|---|
| 1777747348 | 22.78° C | 36% | 1016.5 hPa | 0 mm | - | 676 W/m² | - |
| 1777747045 | 22.22° C | 35% | 1016.6 hPa | 0 mm | - | 716 W/m² | - |
| 1777746741 | 22.22° C | 35% | 1016.5 hPa | 0 mm | - | 501 W/m² | - |
| 1777746436 | 22.22° C | 37% | 1016.8 hPa | 0 mm | - | 647 W/m² | - |
| 1777746131 | 22.78° C | 36% | 1016.9 hPa | 0 mm | - | 569 W/m² | - |
| 1777745828 | 22.22° C | 37% | 1016.9 hPa | 0 mm | - | 720 W/m² | - |
| 1777745523 | 22.22° C | 37% | 1016.8 hPa | 0 mm | - | 751 W/m² | - |
| 1777745219 | 21.67° C | 38% | 1016.9 hPa | 0 mm | - | 704 W/m² | - |
| 1777744916 | 21.67° C | 39% | 1016.9 hPa | 0 mm | - | 711 W/m² | - |
| 1777744615 | 22.22° C | 37% | 1017 hPa | 0 mm | - | 717 W/m² | - |
| 1777744311 | 22.22° C | 39% | 1017.1 hPa | 0 mm | - | 704 W/m² | - |
| 1777744008 | 22.22° C | 36% | 1017 hPa | 0 mm | - | 714 W/m² | - |
| 1777743704 | 20.56° C | 40% | 1017 hPa | 0 mm | - | 712 W/m² | - |
| 1777743402 | 20° C | 40% | 1017.3 hPa | 0 mm | - | 678 W/m² | - |
| 1777743100 | 20.56° C | 38% | 1017.2 hPa | 0 mm | - | 631 W/m² | - |
| 1777742797 | 20° C | 40% | 1017.3 hPa | 0 mm | - | 662 W/m² | - |
| 1777742494 | 20° C | 41% | 1017.4 hPa | 0 mm | - | 640 W/m² | - |
| 1777742189 | 19.44° C | 41% | 1017.5 hPa | 0 mm | - | 591 W/m² | - |
| 1777741886 | 20° C | 39% | 1017.3 hPa | 0 mm | - | 605 W/m² | - |
| 1777741584 | 18.89° C | 41% | 1017.4 hPa | 0 mm | - | 580 W/m² | - |
| 1777741280 | 18.33° C | 42% | 1017.3 hPa | 0 mm | - | 598 W/m² | - |
| 1777740977 | 18.33° C | 41% | 1017.5 hPa | 0 mm | - | 627 W/m² | - |
| 1777740674 | 18.33° C | 42% | 1017.5 hPa | 0 mm | - | 566 W/m² | - |
| 1777740369 | 17.78° C | 43% | 1017.4 hPa | 0 mm | - | 557 W/m² | - |
| 1777740061 | 17.78° C | 43% | 1017.5 hPa | 0 mm | - | 566 W/m² | - |
* Rain latest hour (hover to see other rain measurements)
** Current wind speed in m/s (hover to see current wind gust speed)